sensor_id;sensor_type;location;lat;lon;timestamp;P1;durP1;ratioP1;P2;durP2;ratioP2
5682;SDS011;2864;49.220;8.654;2022-11-06T00:02:22;21.60;;;14.07;;
5682;SDS011;2864;49.220;8.654;2022-11-06T00:04:47;20.30;;;13.27;;
5682;SDS011;2864;49.220;8.654;2022-11-06T00:07:13;23.53;;;12.17;;
5682;SDS011;2864;49.220;8.654;2022-11-06T00:09:38;19.47;;;12.53;;
5682;SDS011;2864;49.220;8.654;2022-11-06T00:12:04;28.20;;;13.67;;
5682;SDS011;2864;49.220;8.654;2022-11-06T00:14:30;18.13;;;11.50;;
5682;SDS011;2864;49.220;8.654;2022-11-06T00:16:55;19.53;;;12.77;;
5682;SDS011;2864;49.220;8.654;2022-11-06T00:19:21;19.13;;;12.60;;
5682;SDS011;2864;49.220;8.654;2022-11-06T00:21:46;19.77;;;12.30;;
5682;SDS011;2864;49.220;8.654;2022-11-06T00:24:12;19.60;;;11.87;;
5682;SDS011;2864;49.220;8.654;2022-11-06T00:26:39;20.47;;;12.30;;
5682;SDS011;2864;49.220;8.654;2022-11-06T00:29:05;16.13;;;11.20;;
5682;SDS011;2864;49.220;8.654;2022-11-06T00:31:35;21.37;;;12.33;;
5682;SDS011;2864;49.220;8.654;2022-11-06T00:34:01;18.43;;;11.40;;
5682;SDS011;2864;49.220;8.654;2022-11-06T00:36:28;18.13;;;12.10;;
5682;SDS011;2864;49.220;8.654;2022-11-06T00:38:54;24.17;;;12.77;;
5682;SDS011;2864;49.220;8.654;2022-11-06T00:41:21;20.93;;;13.00;;
5682;SDS011;2864;49.220;8.654;2022-11-06T00:43:52;20.83;;;12.73;;
5682;SDS011;2864;49.220;8.654;2022-11-06T00:46:20;25.13;;;12.23;;
5682;SDS011;2864;49.220;8.654;2022-11-06T00:48:45;21.47;;;12.63;;
5682;SDS011;2864;49.220;8.654;2022-11-06T00:53:39;23.30;;;12.17;;
5682;SDS011;2864;49.220;8.654;2022-11-06T00:56:06;21.87;;;12.70;;
5682;SDS011;2864;49.220;8.654;2022-11-06T00:58:33;22.67;;;12.43;;
5682;SDS011;2864;49.220;8.654;2022-11-06T01:03:39;18.20;;;12.97;;
5682;SDS011;2864;49.220;8.654;2022-11-06T01:06:06;20.73;;;12.40;;
5682;SDS011;2864;49.220;8.654;2022-11-06T01:08:37;28.83;;;14.43;;
5682;SDS011;2864;49.220;8.654;2022-11-06T01:11:07;23.97;;;14.80;;
5682;SDS011;2864;49.220;8.654;2022-11-06T01:13:35;26.63;;;15.80;;
5682;SDS011;2864;49.220;8.654;2022-11-06T01:16:03;25.37;;;14.90;;
5682;SDS011;2864;49.220;8.654;2022-11-06T01:18:30;23.67;;;14.93;;
5682;SDS011;2864;49.220;8.654;2022-11-06T01:20:56;21.93;;;13.03;;
5682;SDS011;2864;49.220;8.654;2022-11-06T01:23:21;30.17;;;14.10;;
5682;SDS011;2864;49.220;8.654;2022-11-06T01:25:57;21.07;;;13.83;;
5682;SDS011;2864;49.220;8.654;2022-11-06T01:28:24;23.00;;;14.60;;
5682;SDS011;2864;49.220;8.654;2022-11-06T01:30:51;23.57;;;13.93;;
5682;SDS011;2864;49.220;8.654;2022-11-06T01:33:16;23.27;;;14.47;;
5682;SDS011;2864;49.220;8.654;2022-11-06T01:35:43;27.13;;;14.33;;
5682;SDS011;2864;49.220;8.654;2022-11-06T01:38:10;21.67;;;13.57;;
5682;SDS011;2864;49.220;8.654;2022-11-06T01:40:39;23.03;;;12.30;;
5682;SDS011;2864;49.220;8.654;2022-11-06T01:43:17;28.57;;;13.33;;
5682;SDS011;2864;49.220;8.654;2022-11-06T01:45:51;19.97;;;12.73;;
5682;SDS011;2864;49.220;8.654;2022-11-06T01:48:25;19.73;;;11.77;;
5682;SDS011;2864;49.220;8.654;2022-11-06T01:50:54;23.03;;;11.70;;
5682;SDS011;2864;49.220;8.654;2022-11-06T01:53:22;16.23;;;10.57;;
5682;SDS011;2864;49.220;8.654;2022-11-06T01:55:51;19.67;;;10.80;;
5682;SDS011;2864;49.220;8.654;2022-11-06T01:58:20;21.33;;;11.60;;
5682;SDS011;2864;49.220;8.654;2022-11-06T02:00:48;15.63;;;10.53;;
5682;SDS011;2864;49.220;8.654;2022-11-06T02:03:14;18.30;;;11.00;;
5682;SDS011;2864;49.220;8.654;2022-11-06T02:05:40;16.70;;;10.33;;
5682;SDS011;2864;49.220;8.654;2022-11-06T02:08:08;14.60;;;10.00;;
5682;SDS011;2864;49.220;8.654;2022-11-06T02:10:36;16.93;;;11.13;;
5682;SDS011;2864;49.220;8.654;2022-11-06T02:16:13;18.13;;;11.50;;
5682;SDS011;2864;49.220;8.654;2022-11-06T02:18:54;21.00;;;12.27;;
5682;SDS011;2864;49.220;8.654;2022-11-06T02:26:55;21.50;;;12.60;;
5682;SDS011;2864;49.220;8.654;2022-11-06T02:29:38;25.67;;;13.10;;
5682;SDS011;2864;49.220;8.654;2022-11-06T02:35:02;18.23;;;10.77;;
5682;SDS011;2864;49.220;8.654;2022-11-06T02:37:36;17.77;;;11.80;;
5682;SDS011;2864;49.220;8.654;2022-11-06T02:40:06;21.20;;;11.53;;
5682;SDS011;2864;49.220;8.654;2022-11-06T02:42:34;20.13;;;11.37;;
5682;SDS011;2864;49.220;8.654;2022-11-06T02:45:05;18.87;;;11.23;;
5682;SDS011;2864;49.220;8.654;2022-11-06T02:47:33;25.10;;;12.10;;
5682;SDS011;2864;49.220;8.654;2022-11-06T02:50:04;22.00;;;11.70;;
5682;SDS011;2864;49.220;8.654;2022-11-06T02:52:46;22.33;;;12.17;;
5682;SDS011;2864;49.220;8.654;2022-11-06T02:55:21;20.20;;;11.67;;
5682;SDS011;2864;49.220;8.654;2022-11-06T02:57:56;25.13;;;12.97;;
5682;SDS011;2864;49.220;8.654;2022-11-06T03:00:29;21.07;;;12.10;;
5682;SDS011;2864;49.220;8.654;2022-11-06T03:03:39;22.03;;;13.23;;
5682;SDS011;2864;49.220;8.654;2022-11-06T03:05:51;21.80;;;11.53;;
5682;SDS011;2864;49.220;8.654;2022-11-06T03:08:35;22.53;;;11.23;;
5682;SDS011;2864;49.220;8.654;2022-11-06T03:13:56;21.90;;;11.50;;
5682;SDS011;2864;49.220;8.654;2022-11-06T03:27:21;22.23;;;13.00;;
5682;SDS011;2864;49.220;8.654;2022-11-06T03:30:00;21.10;;;12.20;;
5682;SDS011;2864;49.220;8.654;2022-11-06T03:35:18;23.50;;;11.77;;
5682;SDS011;2864;49.220;8.654;2022-11-06T03:37:51;23.47;;;11.80;;
5682;SDS011;2864;49.220;8.654;2022-11-06T03:40:26;22.27;;;12.50;;
5682;SDS011;2864;49.220;8.654;2022-11-06T03:42:56;18.60;;;11.80;;
5682;SDS011;2864;49.220;8.654;2022-11-06T03:45:25;18.17;;;11.87;;
5682;SDS011;2864;49.220;8.654;2022-11-06T03:48:08;20.20;;;12.90;;
5682;SDS011;2864;49.220;8.654;2022-11-06T03:50:45;23.13;;;12.97;;
5682;SDS011;2864;49.220;8.654;2022-11-06T03:53:28;18.73;;;11.87;;
5682;SDS011;2864;49.220;8.654;2022-11-06T03:56:06;23.33;;;12.23;;
5682;SDS011;2864;49.220;8.654;2022-11-06T03:58:37;33.10;;;17.00;;
5682;SDS011;2864;49.220;8.654;2022-11-06T04:01:05;32.87;;;16.53;;
5682;SDS011;2864;49.220;8.654;2022-11-06T04:03:40;32.90;;;15.07;;
5682;SDS011;2864;49.220;8.654;2022-11-06T04:06:19;25.53;;;14.00;;
5682;SDS011;2864;49.220;8.654;2022-11-06T04:08:46;25.93;;;13.20;;
5682;SDS011;2864;49.220;8.654;2022-11-06T04:11:33;28.23;;;13.43;;
5682;SDS011;2864;49.220;8.654;2022-11-06T04:14:19;22.90;;;12.53;;
5682;SDS011;2864;49.220;8.654;2022-11-06T04:16:49;25.63;;;16.20;;
5682;SDS011;2864;49.220;8.654;2022-11-06T04:19:19;27.43;;;13.90;;
5682;SDS011;2864;49.220;8.654;2022-11-06T04:27:37;27.57;;;15.43;;
5682;SDS011;2864;49.220;8.654;2022-11-06T04:30:08;30.40;;;16.00;;
5682;SDS011;2864;49.220;8.654;2022-11-06T04:40:57;30.27;;;15.50;;
5682;SDS011;2864;49.220;8.654;2022-11-06T04:43:43;26.73;;;14.33;;
5682;SDS011;2864;49.220;8.654;2022-11-06T04:46:16;28.83;;;15.57;;
5682;SDS011;2864;49.220;8.654;2022-11-06T04:48:45;26.50;;;15.43;;
5682;SDS011;2864;49.220;8.654;2022-11-06T04:51:12;26.30;;;14.83;;
5682;SDS011;2864;49.220;8.654;2022-11-06T04:53:38;27.87;;;16.30;;
5682;SDS011;2864;49.220;8.654;2022-11-06T04:56:08;28.33;;;15.70;;
5682;SDS011;2864;49.220;8.654;2022-11-06T04:58:36;25.80;;;15.40;;
5682;SDS011;2864;49.220;8.654;2022-11-06T05:01:02;25.60;;;15.63;;
5682;SDS011;2864;49.220;8.654;2022-11-06T05:03:29;28.20;;;15.87;;
5682;SDS011;2864;49.220;8.654;2022-11-06T05:05:54;29.87;;;16.33;;
5682;SDS011;2864;49.220;8.654;2022-11-06T05:08:20;31.30;;;17.93;;
5682;SDS011;2864;49.220;8.654;2022-11-06T05:10:46;29.33;;;17.67;;
5682;SDS011;2864;49.220;8.654;2022-11-06T05:13:13;27.30;;;17.00;;
5682;SDS011;2864;49.220;8.654;2022-11-06T05:15:39;27.10;;;16.50;;
5682;SDS011;2864;49.220;8.654;2022-11-06T05:18:05;25.57;;;15.37;;
5682;SDS011;2864;49.220;8.654;2022-11-06T05:20:31;30.10;;;17.03;;
5682;SDS011;2864;49.220;8.654;2022-11-06T05:22:57;28.23;;;16.80;;
5682;SDS011;2864;49.220;8.654;2022-11-06T05:25:30;27.37;;;15.57;;
5682;SDS011;2864;49.220;8.654;2022-11-06T05:27:57;32.70;;;16.77;;
5682;SDS011;2864;49.220;8.654;2022-11-06T05:30:23;31.53;;;18.40;;
5682;SDS011;2864;49.220;8.654;2022-11-06T05:32:50;26.43;;;17.17;;
5682;SDS011;2864;49.220;8.654;2022-11-06T05:35:16;31.60;;;18.20;;
5682;SDS011;2864;49.220;8.654;2022-11-06T05:37:43;31.53;;;17.20;;
5682;SDS011;2864;49.220;8.654;2022-11-06T05:40:08;31.07;;;18.03;;
5682;SDS011;2864;49.220;8.654;2022-11-06T05:42:38;31.00;;;18.43;;
5682;SDS011;2864;49.220;8.654;2022-11-06T05:45:05;27.83;;;18.33;;
5682;SDS011;2864;49.220;8.654;2022-11-06T05:47:31;29.77;;;18.10;;
5682;SDS011;2864;49.220;8.654;2022-11-06T05:49:57;34.37;;;18.30;;
5682;SDS011;2864;49.220;8.654;2022-11-06T05:52:23;29.17;;;17.47;;
5682;SDS011;2864;49.220;8.654;2022-11-06T05:54:48;28.27;;;16.77;;
5682;SDS011;2864;49.220;8.654;2022-11-06T05:57:14;27.77;;;17.30;;
5682;SDS011;2864;49.220;8.654;2022-11-06T05:59:39;33.93;;;18.33;;
5682;SDS011;2864;49.220;8.654;2022-11-06T06:02:05;33.27;;;17.67;;
5682;SDS011;2864;49.220;8.654;2022-11-06T06:04:31;33.03;;;17.83;;
5682;SDS011;2864;49.220;8.654;2022-11-06T06:06:57;27.10;;;17.37;;
5682;SDS011;2864;49.220;8.654;2022-11-06T06:09:22;28.07;;;18.03;;
5682;SDS011;2864;49.220;8.654;2022-11-06T06:11:51;28.30;;;17.83;;
5682;SDS011;2864;49.220;8.654;2022-11-06T06:14:18;27.87;;;18.30;;
5682;SDS011;2864;49.220;8.654;2022-11-06T06:16:44;28.77;;;17.77;;
5682;SDS011;2864;49.220;8.654;2022-11-06T06:19:10;30.77;;;18.53;;
5682;SDS011;2864;49.220;8.654;2022-11-06T06:21:36;30.30;;;19.97;;
5682;SDS011;2864;49.220;8.654;2022-11-06T06:24:02;32.00;;;19.00;;
5682;SDS011;2864;49.220;8.654;2022-11-06T06:26:29;30.13;;;18.73;;
5682;SDS011;2864;49.220;8.654;2022-11-06T06:28:54;42.70;;;26.10;;
5682;SDS011;2864;49.220;8.654;2022-11-06T06:31:20;38.43;;;23.80;;
5682;SDS011;2864;49.220;8.654;2022-11-06T06:33:46;32.50;;;21.03;;
5682;SDS011;2864;49.220;8.654;2022-11-06T06:36:11;36.03;;;22.27;;
5682;SDS011;2864;49.220;8.654;2022-11-06T06:38:37;45.87;;;27.73;;
5682;SDS011;2864;49.220;8.654;2022-11-06T06:41:04;38.73;;;23.77;;
5682;SDS011;2864;49.220;8.654;2022-11-06T06:43:30;35.43;;;20.87;;
5682;SDS011;2864;49.220;8.654;2022-11-06T06:46:00;33.40;;;21.47;;
5682;SDS011;2864;49.220;8.654;2022-11-06T06:48:27;39.77;;;22.13;;
5682;SDS011;2864;49.220;8.654;2022-11-06T06:50:57;32.53;;;21.63;;
5682;SDS011;2864;49.220;8.654;2022-11-06T06:53:26;36.23;;;22.00;;
5682;SDS011;2864;49.220;8.654;2022-11-06T06:55:52;33.63;;;21.00;;
5682;SDS011;2864;49.220;8.654;2022-11-06T06:58:17;31.63;;;20.40;;
5682;SDS011;2864;49.220;8.654;2022-11-06T07:00:44;35.47;;;21.60;;
5682;SDS011;2864;49.220;8.654;2022-11-06T07:03:10;34.80;;;21.77;;
5682;SDS011;2864;49.220;8.654;2022-11-06T07:05:36;35.60;;;20.80;;
5682;SDS011;2864;49.220;8.654;2022-11-06T07:08:02;37.53;;;21.37;;
5682;SDS011;2864;49.220;8.654;2022-11-06T07:10:29;35.17;;;23.07;;
5682;SDS011;2864;49.220;8.654;2022-11-06T07:12:55;35.53;;;21.50;;
5682;SDS011;2864;49.220;8.654;2022-11-06T07:15:24;36.17;;;21.53;;
5682;SDS011;2864;49.220;8.654;2022-11-06T07:17:50;39.17;;;23.70;;
5682;SDS011;2864;49.220;8.654;2022-11-06T07:20:15;33.93;;;21.07;;
5682;SDS011;2864;49.220;8.654;2022-11-06T07:22:41;34.67;;;21.67;;
5682;SDS011;2864;49.220;8.654;2022-11-06T07:25:07;40.60;;;22.63;;
5682;SDS011;2864;49.220;8.654;2022-11-06T07:27:32;36.77;;;23.00;;
5682;SDS011;2864;49.220;8.654;2022-11-06T07:29:58;35.87;;;22.53;;
5682;SDS011;2864;49.220;8.654;2022-11-06T07:32:24;37.13;;;22.27;;
5682;SDS011;2864;49.220;8.654;2022-11-06T07:34:50;34.97;;;21.50;;
5682;SDS011;2864;49.220;8.654;2022-11-06T07:37:16;32.93;;;21.27;;
5682;SDS011;2864;49.220;8.654;2022-11-06T07:43:07;34.53;;;20.53;;
5682;SDS011;2864;49.220;8.654;2022-11-06T07:45:34;35.23;;;21.70;;
5682;SDS011;2864;49.220;8.654;2022-11-06T07:48:01;33.10;;;19.93;;
5682;SDS011;2864;49.220;8.654;2022-11-06T07:50:27;37.47;;;20.93;;
5682;SDS011;2864;49.220;8.654;2022-11-06T07:52:53;35.73;;;22.40;;
5682;SDS011;2864;49.220;8.654;2022-11-06T07:55:19;34.00;;;21.70;;
5682;SDS011;2864;49.220;8.654;2022-11-06T07:57:45;37.30;;;21.03;;
5682;SDS011;2864;49.220;8.654;2022-11-06T08:00:11;35.77;;;21.07;;
5682;SDS011;2864;49.220;8.654;2022-11-06T08:02:38;33.13;;;21.30;;
5682;SDS011;2864;49.220;8.654;2022-11-06T08:05:03;30.57;;;21.00;;
5682;SDS011;2864;49.220;8.654;2022-11-06T08:07:29;32.73;;;22.27;;
5682;SDS011;2864;49.220;8.654;2022-11-06T08:09:55;27.13;;;19.10;;
5682;SDS011;2864;49.220;8.654;2022-11-06T08:12:20;25.47;;;17.87;;
5682;SDS011;2864;49.220;8.654;2022-11-06T08:14:46;28.23;;;19.43;;
5682;SDS011;2864;49.220;8.654;2022-11-06T08:17:11;24.60;;;16.77;;
5682;SDS011;2864;49.220;8.654;2022-11-06T08:19:37;22.90;;;16.43;;
5682;SDS011;2864;49.220;8.654;2022-11-06T08:22:03;19.87;;;14.70;;
5682;SDS011;2864;49.220;8.654;2022-11-06T08:24:28;25.20;;;18.87;;
5682;SDS011;2864;49.220;8.654;2022-11-06T08:26:54;17.47;;;13.60;;
5682;SDS011;2864;49.220;8.654;2022-11-06T08:29:19;17.87;;;12.90;;
5682;SDS011;2864;49.220;8.654;2022-11-06T08:31:45;15.53;;;11.53;;
5682;SDS011;2864;49.220;8.654;2022-11-06T08:34:11;13.53;;;10.80;;
5682;SDS011;2864;49.220;8.654;2022-11-06T08:36:38;17.57;;;13.20;;
5682;SDS011;2864;49.220;8.654;2022-11-06T08:39:09;14.43;;;11.33;;
5682;SDS011;2864;49.220;8.654;2022-11-06T08:41:35;12.90;;;10.43;;
5682;SDS011;2864;49.220;8.654;2022-11-06T08:44:00;15.17;;;10.07;;
5682;SDS011;2864;49.220;8.654;2022-11-06T08:46:26;13.40;;;9.93;;
5682;SDS011;2864;49.220;8.654;2022-11-06T08:48:51;10.77;;;9.47;;
5682;SDS011;2864;49.220;8.654;2022-11-06T08:51:17;11.40;;;9.10;;
5682;SDS011;2864;49.220;8.654;2022-11-06T08:53:43;11.67;;;9.23;;
5682;SDS011;2864;49.220;8.654;2022-11-06T08:56:08;11.77;;;9.60;;
5682;SDS011;2864;49.220;8.654;2022-11-06T08:58:34;12.53;;;9.47;;
5682;SDS011;2864;49.220;8.654;2022-11-06T09:01:00;10.50;;;8.90;;
5682;SDS011;2864;49.220;8.654;2022-11-06T09:03:25;42.43;;;26.87;;
5682;SDS011;2864;49.220;8.654;2022-11-06T09:05:51;14.07;;;10.57;;
5682;SDS011;2864;49.220;8.654;2022-11-06T09:08:16;21.83;;;14.80;;
5682;SDS011;2864;49.220;8.654;2022-11-06T09:10:42;26.40;;;19.17;;
5682;SDS011;2864;49.220;8.654;2022-11-06T09:13:08;25.57;;;22.57;;
5682;SDS011;2864;49.220;8.654;2022-11-06T09:15:35;19.77;;;15.70;;
5682;SDS011;2864;49.220;8.654;2022-11-06T09:18:01;12.17;;;10.30;;
5682;SDS011;2864;49.220;8.654;2022-11-06T09:20:26;14.17;;;11.23;;
5682;SDS011;2864;49.220;8.654;2022-11-06T09:22:53;10.67;;;8.13;;
5682;SDS011;2864;49.220;8.654;2022-11-06T09:25:19;8.90;;;6.77;;
5682;SDS011;2864;49.220;8.654;2022-11-06T09:27:49;10.27;;;6.83;;
5682;SDS011;2864;49.220;8.654;2022-11-06T09:30:18;7.03;;;6.03;;
5682;SDS011;2864;49.220;8.654;2022-11-06T09:32:45;9.93;;;6.40;;
5682;SDS011;2864;49.220;8.654;2022-11-06T09:35:12;7.03;;;6.23;;
5682;SDS011;2864;49.220;8.654;2022-11-06T09:37:38;8.07;;;5.40;;
5682;SDS011;2864;49.220;8.654;2022-11-06T09:40:04;7.67;;;4.90;;
5682;SDS011;2864;49.220;8.654;2022-11-06T09:45:06;5.07;;;4.33;;
5682;SDS011;2864;49.220;8.654;2022-11-06T09:47:39;6.63;;;4.47;;
5682;SDS011;2864;49.220;8.654;2022-11-06T09:50:11;8.50;;;5.53;;
5682;SDS011;2864;49.220;8.654;2022-11-06T09:55:21;7.73;;;6.40;;
5682;SDS011;2864;49.220;8.654;2022-11-06T09:57:57;5.00;;;4.50;;
5682;SDS011;2864;49.220;8.654;2022-11-06T10:00:27;5.70;;;4.47;;
5682;SDS011;2864;49.220;8.654;2022-11-06T10:03:10;6.00;;;4.63;;
5682;SDS011;2864;49.220;8.654;2022-11-06T10:05:41;6.17;;;4.97;;
5682;SDS011;2864;49.220;8.654;2022-11-06T10:21:53;6.37;;;4.67;;
5682;SDS011;2864;49.220;8.654;2022-11-06T10:24:38;7.33;;;4.67;;
5682;SDS011;2864;49.220;8.654;2022-11-06T10:27:13;5.50;;;4.17;;
5682;SDS011;2864;49.220;8.654;2022-11-06T10:35:30;4.53;;;4.00;;
5682;SDS011;2864;49.220;8.654;2022-11-06T10:40:35;5.80;;;4.57;;
5682;SDS011;2864;49.220;8.654;2022-11-06T10:48:45;3.23;;;2.93;;
5682;SDS011;2864;49.220;8.654;2022-11-06T10:54:53;5.40;;;3.70;;
5682;SDS011;2864;49.220;8.654;2022-11-06T10:59:44;5.90;;;3.70;;
5682;SDS011;2864;49.220;8.654;2022-11-06T11:02:19;5.20;;;4.30;;
5682;SDS011;2864;49.220;8.654;2022-11-06T11:04:48;5.60;;;4.10;;
5682;SDS011;2864;49.220;8.654;2022-11-06T11:07:14;4.43;;;3.90;;
5682;SDS011;2864;49.220;8.654;2022-11-06T11:09:40;6.93;;;4.70;;
5682;SDS011;2864;49.220;8.654;2022-11-06T11:12:20;5.43;;;3.97;;
5682;SDS011;2864;49.220;8.654;2022-11-06T11:15:30;3.70;;;2.93;;
5682;SDS011;2864;49.220;8.654;2022-11-06T11:18:06;6.20;;;4.47;;
5682;SDS011;2864;49.220;8.654;2022-11-06T11:20:36;4.63;;;3.10;;
5682;SDS011;2864;49.220;8.654;2022-11-06T11:23:26;4.73;;;3.27;;
5682;SDS011;2864;49.220;8.654;2022-11-06T11:25:52;3.93;;;3.30;;
5682;SDS011;2864;49.220;8.654;2022-11-06T11:31:05;3.77;;;3.30;;
5682;SDS011;2864;49.220;8.654;2022-11-06T11:33:36;3.03;;;2.73;;
5682;SDS011;2864;49.220;8.654;2022-11-06T11:36:03;3.90;;;2.80;;
5682;SDS011;2864;49.220;8.654;2022-11-06T11:38:31;3.90;;;3.30;;
5682;SDS011;2864;49.220;8.654;2022-11-06T11:41:04;5.10;;;3.57;;
5682;SDS011;2864;49.220;8.654;2022-11-06T11:43:33;3.77;;;2.80;;
5682;SDS011;2864;49.220;8.654;2022-11-06T11:48:39;3.73;;;3.23;;
5682;SDS011;2864;49.220;8.654;2022-11-06T11:51:34;4.63;;;3.47;;
5682;SDS011;2864;49.220;8.654;2022-11-06T11:54:21;4.67;;;3.63;;
5682;SDS011;2864;49.220;8.654;2022-11-06T11:59:25;3.60;;;2.87;;
5682;SDS011;2864;49.220;8.654;2022-11-06T12:01:58;3.13;;;2.80;;
5682;SDS011;2864;49.220;8.654;2022-11-06T12:04:38;2.87;;;2.60;;
5682;SDS011;2864;49.220;8.654;2022-11-06T12:07:06;3.33;;;2.60;;
5682;SDS011;2864;49.220;8.654;2022-11-06T12:09:47;3.23;;;2.87;;
5682;SDS011;2864;49.220;8.654;2022-11-06T12:12:20;3.10;;;2.43;;
5682;SDS011;2864;49.220;8.654;2022-11-06T12:17:40;3.37;;;3.07;;
5682;SDS011;2864;49.220;8.654;2022-11-06T12:20:13;3.53;;;2.70;;
5682;SDS011;2864;49.220;8.654;2022-11-06T12:22:43;3.63;;;2.40;;
5682;SDS011;2864;49.220;8.654;2022-11-06T12:28:00;3.90;;;3.13;;
5682;SDS011;2864;49.220;8.654;2022-11-06T12:30:29;3.37;;;2.90;;
5682;SDS011;2864;49.220;8.654;2022-11-06T12:33:05;5.70;;;4.20;;
5682;SDS011;2864;49.220;8.654;2022-11-06T12:38:10;3.43;;;2.93;;
5682;SDS011;2864;49.220;8.654;2022-11-06T12:40:58;8.27;;;5.57;;
5682;SDS011;2864;49.220;8.654;2022-11-06T13:00:22;12.37;;;7.77;;
5682;SDS011;2864;49.220;8.654;2022-11-06T13:05:35;7.87;;;5.63;;
5682;SDS011;2864;49.220;8.654;2022-11-06T13:10:49;9.83;;;6.63;;
5682;SDS011;2864;49.220;8.654;2022-11-06T13:19:08;16.17;;;7.90;;
5682;SDS011;2864;49.220;8.654;2022-11-06T13:27:02;24.37;;;10.57;;
5682;SDS011;2864;49.220;8.654;2022-11-06T13:29:33;17.27;;;7.87;;
5682;SDS011;2864;49.220;8.654;2022-11-06T13:32:04;14.23;;;7.70;;
5682;SDS011;2864;49.220;8.654;2022-11-06T13:34:37;7.27;;;5.23;;
5682;SDS011;2864;49.220;8.654;2022-11-06T13:37:15;21.00;;;9.67;;
5682;SDS011;2864;49.220;8.654;2022-11-06T13:42:41;11.20;;;6.43;;
5682;SDS011;2864;49.220;8.654;2022-11-06T13:45:13;16.27;;;7.70;;
5682;SDS011;2864;49.220;8.654;2022-11-06T13:47:47;10.07;;;6.17;;
5682;SDS011;2864;49.220;8.654;2022-11-06T13:50:24;8.80;;;5.10;;
5682;SDS011;2864;49.220;8.654;2022-11-06T14:06:51;6.07;;;3.47;;
5682;SDS011;2864;49.220;8.654;2022-11-06T14:09:21;7.47;;;5.10;;
5682;SDS011;2864;49.220;8.654;2022-11-06T14:11:51;6.70;;;4.00;;
5682;SDS011;2864;49.220;8.654;2022-11-06T14:14:26;6.67;;;4.13;;
5682;SDS011;2864;49.220;8.654;2022-11-06T14:17:36;8.47;;;3.87;;
5682;SDS011;2864;49.220;8.654;2022-11-06T14:22:26;5.60;;;3.63;;
5682;SDS011;2864;49.220;8.654;2022-11-06T14:24:54;4.70;;;4.07;;
5682;SDS011;2864;49.220;8.654;2022-11-06T14:35:47;7.67;;;3.27;;
5682;SDS011;2864;49.220;8.654;2022-11-06T14:37:52;5.83;;;3.27;;
5682;SDS011;2864;49.220;8.654;2022-11-06T14:40:35;4.33;;;3.30;;
5682;SDS011;2864;49.220;8.654;2022-11-06T14:43:16;4.83;;;3.43;;
5682;SDS011;2864;49.220;8.654;2022-11-06T14:46:02;5.67;;;3.13;;
5682;SDS011;2864;49.220;8.654;2022-11-06T14:48:43;4.20;;;3.30;;
5682;SDS011;2864;49.220;8.654;2022-11-06T14:51:12;5.70;;;3.47;;
5682;SDS011;2864;49.220;8.654;2022-11-06T14:53:49;3.60;;;3.20;;
5682;SDS011;2864;49.220;8.654;2022-11-06T14:56:25;4.20;;;3.67;;
5682;SDS011;2864;49.220;8.654;2022-11-06T14:59:13;5.30;;;3.80;;
5682;SDS011;2864;49.220;8.654;2022-11-06T15:01:54;4.90;;;3.83;;
5682;SDS011;2864;49.220;8.654;2022-11-06T15:04:24;6.10;;;4.20;;
5682;SDS011;2864;49.220;8.654;2022-11-06T15:06:53;6.43;;;4.30;;
5682;SDS011;2864;49.220;8.654;2022-11-06T15:12:02;5.47;;;4.77;;
5682;SDS011;2864;49.220;8.654;2022-11-06T15:22:34;5.60;;;4.57;;
5682;SDS011;2864;49.220;8.654;2022-11-06T15:25:15;6.60;;;4.77;;
5682;SDS011;2864;49.220;8.654;2022-11-06T15:27:54;6.47;;;4.80;;
5682;SDS011;2864;49.220;8.654;2022-11-06T15:30:24;5.13;;;4.63;;
5682;SDS011;2864;49.220;8.654;2022-11-06T15:32:51;5.30;;;4.80;;
5682;SDS011;2864;49.220;8.654;2022-11-06T15:35:19;5.63;;;4.93;;
5682;SDS011;2864;49.220;8.654;2022-11-06T15:37:55;6.20;;;5.30;;
5682;SDS011;2864;49.220;8.654;2022-11-06T15:40:28;6.77;;;4.93;;
5682;SDS011;2864;49.220;8.654;2022-11-06T15:42:56;9.23;;;4.90;;
5682;SDS011;2864;49.220;8.654;2022-11-06T15:45:25;8.67;;;5.90;;
5682;SDS011;2864;49.220;8.654;2022-11-06T15:47:54;8.13;;;6.30;;
5682;SDS011;2864;49.220;8.654;2022-11-06T15:50:21;7.53;;;6.10;;
5682;SDS011;2864;49.220;8.654;2022-11-06T15:52:51;6.20;;;5.37;;
5682;SDS011;2864;49.220;8.654;2022-11-06T15:55:24;5.90;;;5.27;;
5682;SDS011;2864;49.220;8.654;2022-11-06T15:57:52;8.60;;;5.97;;
5682;SDS011;2864;49.220;8.654;2022-11-06T16:00:19;7.53;;;5.93;;
5682;SDS011;2864;49.220;8.654;2022-11-06T16:05:17;8.30;;;5.63;;
5682;SDS011;2864;49.220;8.654;2022-11-06T16:07:45;7.87;;;6.50;;
5682;SDS011;2864;49.220;8.654;2022-11-06T16:10:15;8.90;;;6.63;;
5682;SDS011;2864;49.220;8.654;2022-11-06T16:12:42;8.83;;;6.43;;
5682;SDS011;2864;49.220;8.654;2022-11-06T16:18:15;7.40;;;5.00;;
5682;SDS011;2864;49.220;8.654;2022-11-06T16:20:44;9.70;;;6.10;;
5682;SDS011;2864;49.220;8.654;2022-11-06T16:23:13;5.23;;;4.70;;
5682;SDS011;2864;49.220;8.654;2022-11-06T16:25:42;5.00;;;4.50;;
5682;SDS011;2864;49.220;8.654;2022-11-06T16:28:12;6.10;;;4.63;;
5682;SDS011;2864;49.220;8.654;2022-11-06T16:30:46;6.70;;;5.13;;
5682;SDS011;2864;49.220;8.654;2022-11-06T16:33:17;7.13;;;5.10;;
5682;SDS011;2864;49.220;8.654;2022-11-06T16:35:45;5.80;;;4.60;;
5682;SDS011;2864;49.220;8.654;2022-11-06T16:43:15;4.93;;;4.13;;
5682;SDS011;2864;49.220;8.654;2022-11-06T16:46:15;5.00;;;4.07;;
5682;SDS011;2864;49.220;8.654;2022-11-06T16:51:01;4.50;;;4.10;;
5682;SDS011;2864;49.220;8.654;2022-11-06T16:53:30;5.73;;;4.17;;
5682;SDS011;2864;49.220;8.654;2022-11-06T16:55:59;6.27;;;5.00;;
5682;SDS011;2864;49.220;8.654;2022-11-06T16:58:28;7.93;;;5.50;;
5682;SDS011;2864;49.220;8.654;2022-11-06T17:00:58;7.63;;;5.47;;
5682;SDS011;2864;49.220;8.654;2022-11-06T17:03:27;6.90;;;5.50;;
5682;SDS011;2864;49.220;8.654;2022-11-06T17:05:57;6.40;;;5.20;;
5682;SDS011;2864;49.220;8.654;2022-11-06T17:08:29;5.73;;;5.13;;
5682;SDS011;2864;49.220;8.654;2022-11-06T17:13:36;7.53;;;5.30;;
5682;SDS011;2864;49.220;8.654;2022-11-06T17:16:02;5.27;;;4.60;;
5682;SDS011;2864;49.220;8.654;2022-11-06T17:18:33;7.83;;;4.87;;
5682;SDS011;2864;49.220;8.654;2022-11-06T17:21:02;6.00;;;5.10;;
5682;SDS011;2864;49.220;8.654;2022-11-06T17:23:29;6.03;;;5.07;;
5682;SDS011;2864;49.220;8.654;2022-11-06T17:25:57;6.70;;;4.97;;
5682;SDS011;2864;49.220;8.654;2022-11-06T17:28:26;6.87;;;5.10;;
5682;SDS011;2864;49.220;8.654;2022-11-06T17:30:51;7.50;;;5.27;;
5682;SDS011;2864;49.220;8.654;2022-11-06T17:33:18;7.53;;;5.77;;
5682;SDS011;2864;49.220;8.654;2022-11-06T17:35:45;10.03;;;5.60;;
5682;SDS011;2864;49.220;8.654;2022-11-06T17:38:13;7.80;;;6.00;;
5682;SDS011;2864;49.220;8.654;2022-11-06T17:40:40;9.07;;;6.10;;
5682;SDS011;2864;49.220;8.654;2022-11-06T17:43:07;7.67;;;6.73;;
5682;SDS011;2864;49.220;8.654;2022-11-06T17:45:33;9.80;;;7.50;;
5682;SDS011;2864;49.220;8.654;2022-11-06T17:47:59;9.67;;;7.23;;
5682;SDS011;2864;49.220;8.654;2022-11-06T17:50:24;10.00;;;7.63;;
5682;SDS011;2864;49.220;8.654;2022-11-06T17:52:50;11.27;;;7.83;;
5682;SDS011;2864;49.220;8.654;2022-11-06T17:55:16;10.57;;;7.93;;
5682;SDS011;2864;49.220;8.654;2022-11-06T17:57:41;17.20;;;11.53;;
5682;SDS011;2864;49.220;8.654;2022-11-06T18:00:08;42.83;;;22.77;;
5682;SDS011;2864;49.220;8.654;2022-11-06T18:02:35;37.33;;;24.37;;
5682;SDS011;2864;49.220;8.654;2022-11-06T18:05:00;33.30;;;21.50;;
5682;SDS011;2864;49.220;8.654;2022-11-06T18:07:26;24.80;;;16.60;;
5682;SDS011;2864;49.220;8.654;2022-11-06T18:09:52;19.87;;;14.57;;
5682;SDS011;2864;49.220;8.654;2022-11-06T18:12:18;13.93;;;9.50;;
5682;SDS011;2864;49.220;8.654;2022-11-06T18:14:45;19.47;;;13.37;;
5682;SDS011;2864;49.220;8.654;2022-11-06T18:17:11;24.43;;;15.47;;
5682;SDS011;2864;49.220;8.654;2022-11-06T18:19:37;21.53;;;12.80;;
5682;SDS011;2864;49.220;8.654;2022-11-06T18:22:03;18.53;;;13.13;;
5682;SDS011;2864;49.220;8.654;2022-11-06T18:24:28;20.60;;;14.50;;
5682;SDS011;2864;49.220;8.654;2022-11-06T18:26:54;31.57;;;18.57;;